Siteam Jupiter — A8JA6 — position and weather

sailwx.info

Track history (hours):
 
Tides and Currents Weather Stations Pressure Air Temp Water Temp Dewpoint Dewpoint Depression Visibility Wind Speed Wind Dir Waves Ship Positions

Siteam Jupiter

Last reported at 2014-Oct-22 02:28 UTC. Time now 2014-Oct-25 06:29 UTC.
Position S 34°20' W 058°29'.

Length 181 m; draft 9.4 m.

Type: Tanker. MMSI: 636091062.

Date/timePositionNaut miles runAvg speedWind from/ knotsBaromVisibWave heightAir tempDewpointWater temp
2014-Oct-22 02:28S 34°20' W 058°29'6 6.3
2014-Oct-22 01:33S 34°25' W 058°26'7 6.7
2014-Oct-22 00:33S 34°30' W 058°22'8 8.2
2014-Oct-21 23:33S 34°36' W 058°15'9 9.1
2014-Oct-21 22:33S 34°39' W 058°04'10 9.5
2014-Oct-21 21:33S 34°42' W 057°53'7 7.0
2014-Oct-21 20:33S 34°44' W 057°45'9 9.4
2014-Oct-21 19:33S 34°46' W 057°34'9 9.3
2014-Oct-21 18:33S 34°50' W 057°24'9 9.1
2014-Oct-21 17:33S 34°56' W 057°16'28 8.2
2014-Oct-21 14:11S 35°10' W 056°46'17 9.0
2014-Oct-21 12:19S 35°10' W 056°26'  
Track history (hours):
 
Tides and Currents Weather Stations Pressure Air Temp Water Temp Dewpoint Dewpoint Depression Visibility Wind Speed Wind Dir Waves Ship Positions

Siteam Jupiter

Last reported at 2014-Oct-22 02:28 UTC. Time now 2014-Oct-25 06:29 UTC.
Position S 34°20' W 058°29'.

Length 181 m; draft 9.4 m.

Type: Tanker. MMSI: 636091062.

Date/timePositionNaut miles runAvg speedWind from/ knotsBaromVisibWave heightAir tempDewpointWater temp
2014-Oct-22 02:28S 34°20' W 058°29'6 6.3
2014-Oct-22 01:33S 34°25' W 058°26'7 6.7
2014-Oct-22 00:33S 34°30' W 058°22'8 8.2
2014-Oct-21 23:33S 34°36' W 058°15'9 9.1
2014-Oct-21 22:33S 34°39' W 058°04'10 9.5
2014-Oct-21 21:33S 34°42' W 057°53'7 7.0
2014-Oct-21 20:33S 34°44' W 057°45'9 9.4
2014-Oct-21 19:33S 34°46' W 057°34'9 9.3
2014-Oct-21 18:33S 34°50' W 057°24'9 9.1
2014-Oct-21 17:33S 34°56' W 057°16'28 8.2
2014-Oct-21 14:11S 35°10' W 056°46'17 9.0
2014-Oct-21 12:19S 35°10' W 056°26'  

Dump ship's entire track history